Time;durP1;ratioP1;P1;durP2;ratioP2;P2;SDS_P1;SDS_P2;PMS_P1;PMS_P2;Temp;Humidity;BMP_temperature;BMP_pressure;BME280_temperature;BME280_humidity;BME280_pressure;Samples;Min_cycle;Max_cycle;Signal;HPM_P1;HPM_P2
2022/01/21 00:01:20;;;;;;;8.75;3.65;;;;;;;-1.55;63.68;98215.50;1743096;81;20933;-39
2022/01/21 00:03:47;;;;;;;7.08;2.90;;;;;;;-1.52;63.75;98219.44;1743270;82;20942;-39
2022/01/21 00:06:14;;;;;;;7.62;3.40;;;;;;;-1.53;63.39;98208.02;1743030;81;21619;-39
2022/01/21 00:08:43;;;;;;;11.65;3.40;;;;;;;-1.53;63.62;98217.32;1707779;83;21244;-39
2022/01/21 00:11:11;;;;;;;4.67;2.70;;;;;;;-1.55;63.53;98208.10;1743179;81;21115;-39
2022/01/21 00:13:38;;;;;;;9.83;3.42;;;;;;;-1.55;63.52;98206.20;1707373;83;21610;-40
2022/01/21 00:16:07;;;;;;;6.87;3.02;;;;;;;-1.54;63.60;98209.10;1679145;85;20960;-40
2022/01/21 00:18:37;;;;;;;6.20;3.25;;;;;;;-1.54;63.71;98199.02;1714361;82;21065;-40
2022/01/21 00:32:08;;;;;;;8.65;3.12;;;;;;;-1.69;63.11;98214.83;1733061;82;20942;-40
2022/01/21 00:34:35;;;;;;;5.85;2.75;;;;;;;-1.71;63.03;98221.02;1743183;82;21516;-40
2022/01/21 00:37:03;;;;;;;8.18;3.22;;;;;;;-1.72;62.96;98214.66;1707292;84;21196;-40
2022/01/21 00:39:32;;;;;;;8.15;3.17;;;;;;;-1.76;62.84;98214.50;1707356;84;21575;-40
2022/01/21 00:42:13;;;;;;;5.00;2.52;;;;;;;-1.80;62.58;98212.23;1741309;82;21523;-40
2022/01/21 00:44:34;;;;;;;7.22;3.35;;;;;;;-1.81;62.54;98215.97;1742883;81;21587;-40
2022/01/21 00:47:00;;;;;;;8.80;3.35;;;;;;;-1.85;62.36;98219.78;1743110;82;21112;-40
2022/01/21 00:49:27;;;;;;;7.03;3.42;;;;;;;-1.87;62.43;98219.84;1743042;82;21121;-40
2022/01/21 00:51:53;;;;;;;8.15;3.58;;;;;;;-1.89;62.42;98224.69;1707352;83;20993;-40
2022/01/21 00:54:21;;;;;;;8.70;3.47;;;;;;;-1.92;62.19;98214.66;1743467;81;21010;-40
2022/01/21 00:56:49;;;;;;;7.72;3.30;;;;;;;-1.94;62.17;98218.97;1743141;82;21034;-40
2022/01/21 00:59:15;;;;;;;7.45;2.72;;;;;;;-1.96;61.99;98223.79;1742131;82;21540;-40
2022/01/21 01:01:42;;;;;;;12.35;3.02;;;;;;;-1.93;61.99;98233.00;1739452;82;21137;-40
2022/01/21 01:04:09;;;;;;;6.70;3.20;;;;;;;-1.93;61.98;98240.43;1743144;82;20992;-40
2022/01/21 01:06:36;;;;;;;5.47;3.22;;;;;;;-1.92;61.82;98240.67;1741684;81;21741;-39
2022/01/21 01:09:03;;;;;;;8.65;3.65;;;;;;;-1.89;61.82;98230.77;1743309;82;21017;-40
2022/01/21 01:11:45;;;;;;;9.55;3.00;;;;;;;-1.90;61.56;98225.23;1743298;82;21492;-40
2022/01/21 01:22:15;;;;;;;5.53;2.62;;;;;;;-1.96;60.92;98221.67;1721513;82;20965;-40
2022/01/21 01:27:41;;;;;;;7.62;2.90;;;;;;;-2.00;60.87;98218.85;1717237;83;21092;-40
2022/01/21 01:30:10;;;;;;;8.43;3.17;;;;;;;-2.00;60.96;98221.51;1716935;83;20929;-39
2022/01/21 01:32:38;;;;;;;4.30;2.67;;;;;;;-2.00;60.76;98215.41;1717133;83;21544;-40
2022/01/21 01:35:08;;;;;;;5.40;2.80;;;;;;;-1.98;60.84;98214.00;1717053;83;21033;-40
2022/01/21 01:43:08;;;;;;;6.05;2.90;;;;;;;-1.99;60.62;98202.37;1717199;83;20905;-40
2022/01/21 01:50:55;;;;;;;7.95;2.87;;;;;;;-2.15;60.41;98180.73;1717093;83;21570;-40
2022/01/21 01:53:29;;;;;;;10.03;3.05;;;;;;;-2.20;60.53;98172.91;1716039;83;21220;-40
2022/01/21 01:55:57;;;;;;;5.28;3.17;;;;;;;-2.23;60.74;98174.28;1711353;83;21092;-40
2022/01/21 01:58:24;;;;;;;6.78;2.80;;;;;;;-2.27;60.80;98177.84;1690059;83;21669;-40
2022/01/21 02:00:50;;;;;;;7.12;2.80;;;;;;;-2.32;60.85;98182.73;1716692;83;21004;-40
2022/01/21 02:03:17;;;;;;;9.20;2.80;;;;;;;-2.33;61.02;98179.08;1716645;83;21053;-40
2022/01/21 02:05:44;;;;;;;6.72;2.98;;;;;;;-2.35;61.08;98178.59;1701213;83;21163;-40
2022/01/21 02:08:11;;;;;;;8.58;3.15;;;;;;;-2.37;61.06;98176.23;1717321;83;21570;-40
2022/01/21 02:10:40;;;;;;;7.15;2.45;;;;;;;-2.37;61.18;98173.58;1717342;83;20945;-40
2022/01/21 02:13:19;;;;;;;10.50;3.20;;;;;;;-2.37;61.25;98173.58;1711116;83;20973;-40
2022/01/21 02:15:40;;;;;;;9.53;3.60;;;;;;;-2.37;61.54;98170.92;1716719;83;21048;-40
2022/01/21 02:23:35;;;;;;;7.15;3.17;;;;;;;-2.29;61.68;98168.09;1717318;83;21024;-40
2022/01/21 02:26:02;;;;;;;5.85;3.00;;;;;;;-2.30;61.73;98167.84;1724075;81;21005;-40
2022/01/21 02:28:29;;;;;;;6.67;3.22;;;;;;;-2.31;61.86;98162.30;1743122;81;21070;-40
2022/01/21 02:30:58;;;;;;;8.15;2.70;;;;;;;-2.33;61.95;98155.98;1742955;82;21153;-40
2022/01/21 02:33:26;;;;;;;7.97;2.70;;;;;;;-2.34;62.09;98151.76;1743294;82;20993;-40
2022/01/21 02:35:55;;;;;;;4.97;2.55;;;;;;;-2.37;62.19;98149.69;1707682;83;21802;-40
2022/01/21 02:38:22;;;;;;;8.48;3.20;;;;;;;-2.36;62.20;98148.61;1707085;84;20972;-40
2022/01/21 02:40:49;;;;;;;9.25;2.70;;;;;;;-2.36;62.07;98145.95;1707372;84;21005;-40
2022/01/21 02:43:16;;;;;;;5.47;2.70;;;;;;;-2.37;61.90;98145.71;1742236;80;21142;-40
2022/01/21 02:45:46;;;;;;;4.30;2.20;;;;;;;-2.35;61.67;98146.74;1742841;82;20985;-40
2022/01/21 02:48:13;;;;;;;7.93;2.87;;;;;;;-2.38;61.49;98141.52;1743110;81;21036;-40
2022/01/21 02:50:42;;;;;;;6.03;2.17;;;;;;;-2.44;61.60;98133.97;1707187;83;21526;-40
2022/01/21 02:53:26;;;;;;;6.12;2.47;;;;;;;-2.49;61.72;98136.75;1707387;84;21475;-40
2022/01/21 02:55:41;;;;;;;7.17;2.42;;;;;;;-2.55;61.84;98142.73;1705248;84;21138;-40
2022/01/21 02:58:08;;;;;;;9.55;3.20;;;;;;;-2.57;61.85;98136.95;1707305;84;20977;-40
2022/01/21 03:00:35;;;;;;;7.20;3.17;;;;;;;-2.56;61.96;98133.20;1706918;84;21008;-39
2022/01/21 03:03:05;;;;;;;6.58;3.05;;;;;;;-2.54;61.96;98125.73;1707426;84;21522;-40
2022/01/21 03:05:34;;;;;;;6.75;2.87;;;;;;;-2.55;62.15;98126.81;1743213;81;21496;-40
2022/01/21 03:08:02;;;;;;;9.00;3.58;;;;;;;-2.50;62.12;98128.01;1743342;82;21081;-40
2022/01/21 03:10:30;;;;;;;7.70;2.87;;;;;;;-2.49;62.20;98124.27;1742747;82;21032;-40
2022/01/21 03:12:56;;;;;;;5.47;2.83;;;;;;;-2.51;62.54;98118.48;1743167;82;21024;-40
2022/01/21 03:15:24;;;;;;;5.92;2.70;;;;;;;-2.45;62.70;98117.27;1707372;83;21044;-40
2022/01/21 03:17:50;;;;;;;10.20;3.58;;;;;;;-2.45;62.96;98107.98;1707641;84;21029;-40
2022/01/21 03:20:17;;;;;;;6.75;3.05;;;;;;;-2.42;63.04;98113.99;1707551;84;21137;-40
2022/01/21 03:22:44;;;;;;;6.37;3.08;;;;;;;-2.45;63.25;98090.73;1684091;84;20976;-40
2022/01/21 03:25:11;;;;;;;6.80;2.95;;;;;;;-2.45;63.53;98104.00;1707208;84;21083;-40
2022/01/21 03:27:37;;;;;;;8.35;3.22;;;;;;;-2.44;63.79;98101.59;1707500;83;21009;-40
2022/01/21 03:30:07;;;;;;;7.53;3.50;;;;;;;-2.44;64.30;98104.24;1695449;82;21001;-42
2022/01/21 03:32:36;;;;;;;5.67;2.90;;;;;;;-2.47;64.84;98099.53;1707585;83;21166;-42
2022/01/21 03:35:05;;;;;;;6.30;2.80;;;;;;;-2.49;65.54;98103.05;1687877;84;20993;-42
2022/01/21 03:37:31;;;;;;;5.65;2.72;;;;;;;-2.47;65.96;98098.77;1679041;85;21005;-42
2022/01/21 03:39:58;;;;;;;4.85;3.15;;;;;;;-2.47;66.43;98094.22;1701218;84;21615;-42
2022/01/21 03:42:25;;;;;;;5.17;2.95;;;;;;;-2.43;66.58;98093.88;1707459;84;20993;-42
2022/01/21 03:44:52;;;;;;;7.00;2.98;;;;;;;-2.45;66.87;98097.36;1707248;84;21092;-41
2022/01/21 03:47:19;;;;;;;7.28;3.27;;;;;;;-2.42;66.95;98104.70;1707391;84;21019;-42
2022/01/21 03:49:53;;;;;;;6.95;3.30;;;;;;;-2.42;67.07;98102.05;1707557;84;20961;-42
2022/01/21 03:52:14;;;;;;;4.87;3.12;;;;;;;-2.43;67.28;98094.41;1706468;84;20957;-42
2022/01/21 03:54:40;;;;;;;8.88;3.45;;;;;;;-2.45;67.62;98094.71;1713853;83;21033;-42
2022/01/21 03:57:07;;;;;;;8.78;3.22;;;;;;;-2.45;67.89;98102.67;1716314;83;21135;-41
2022/01/21 03:59:34;;;;;;;8.13;3.35;;;;;;;-2.42;67.94;98087.45;1707513;84;21487;-42
2022/01/21 04:02:04;;;;;;;7.55;2.90;;;;;;;-2.39;68.05;98086.86;1697892;83;21496;-42
2022/01/21 04:04:31;;;;;;;6.67;3.67;;;;;;;-2.36;68.14;98085.45;1740131;82;21013;-42
2022/01/21 04:06:58;;;;;;;7.35;3.10;;;;;;;-2.37;68.40;98074.05;1745524;82;21510;-42
2022/01/21 04:09:25;;;;;;;8.48;3.42;;;;;;;-2.36;68.52;98084.91;1748503;82;21834;-42
2022/01/21 04:11:53;;;;;;;7.58;3.22;;;;;;;-2.33;68.65;98084.86;1748358;82;20968;-42
2022/01/21 04:14:19;;;;;;;6.25;2.85;;;;;;;-2.33;68.89;98082.99;1743341;82;21005;-42
2022/01/21 04:16:46;;;;;;;7.78;3.37;;;;;;;-2.32;68.93;98077.91;1749118;81;21476;-42
2022/01/21 04:19:13;;;;;;;9.48;3.08;;;;;;;-2.29;68.94;98076.52;1748537;82;21079;-42
2022/01/21 04:21:40;;;;;;;6.50;3.40;;;;;;;-2.26;68.81;98081.20;1744441;82;21153;-42
2022/01/21 04:24:09;;;;;;;9.55;3.30;;;;;;;-2.26;68.78;98084.64;1699432;83;21530;-42
2022/01/21 04:26:37;;;;;;;7.77;3.17;;;;;;;-2.25;68.88;98068.97;1733636;82;21033;-42
2022/01/21 04:29:06;;;;;;;8.98;3.35;;;;;;;-2.26;68.92;98080.66;1703576;83;21056;-42
2022/01/21 04:31:34;;;;;;;11.30;3.67;;;;;;;-2.29;69.03;98083.16;1739723;81;21025;-42
2022/01/21 04:34:02;;;;;;;6.15;3.02;;;;;;;-2.32;69.07;98075.25;1733574;82;21101;-42
2022/01/21 04:36:29;;;;;;;9.43;3.60;;;;;;;-2.33;68.96;98077.69;1739137;82;21460;-42
2022/01/21 04:38:58;;;;;;;9.63;3.80;;;;;;;-2.37;69.15;98074.05;1742779;82;21072;-42
2022/01/21 04:49:33;;;;;;;7.22;3.65;;;;;;;-2.43;69.86;98077.95;1734165;82;20946;-42
2022/01/21 04:52:02;;;;;;;7.33;3.87;;;;;;;-2.43;70.08;98079.82;1743160;82;21771;-42
2022/01/21 04:54:37;;;;;;;7.58;3.52;;;;;;;-2.40;70.33;98076.00;1692824;83;21045;-42
2022/01/21 04:57:05;;;;;;;8.48;3.90;;;;;;;-2.42;70.52;98064.90;1702906;84;21052;-42
2022/01/21 04:59:32;;;;;;;5.92;3.33;;;;;;;-2.41;70.62;98081.61;1725712;82;21116;-42
2022/01/21 05:01:58;;;;;;;6.05;3.27;;;;;;;-2.40;70.86;98095.13;1737632;82;20965;-42
2022/01/21 05:04:25;;;;;;;8.00;3.70;;;;;;;-2.37;70.98;98089.22;1742947;82;21089;-42
2022/01/21 05:06:54;;;;;;;7.95;3.95;;;;;;;-2.38;71.24;98088.44;1701317;84;20973;-42
2022/01/21 05:09:30;;;;;;;7.30;3.42;;;;;;;-2.38;71.44;98083.13;1743173;82;21073;-42
2022/01/21 05:11:55;;;;;;;7.00;3.58;;;;;;;-2.41;71.67;98090.36;1737856;81;21128;-42
2022/01/21 05:14:27;;;;;;;10.38;3.55;;;;;;;-2.39;71.87;98082.88;1741840;82;21021;-42
2022/01/21 05:17:04;;;;;;;8.23;3.60;;;;;;;-2.36;72.09;98103.49;1707044;83;21492;-42
2022/01/21 05:19:31;;;;;;;6.47;3.45;;;;;;;-2.38;72.50;98089.77;1707607;82;20945;-42
2022/01/21 05:22:09;;;;;;;7.28;3.77;;;;;;;-2.37;72.66;98091.88;1707650;83;21069;-42
2022/01/21 05:24:37;;;;;;;12.82;4.35;;;;;;;-2.38;72.73;98090.30;1701222;83;22003;-42
2022/01/21 05:27:06;;;;;;;7.67;3.22;;;;;;;-2.37;72.71;98087.33;1730724;82;21353;-42
2022/01/21 05:29:35;;;;;;;10.18;3.80;;;;;;;-2.37;72.75;98082.59;1737532;82;21554;-42
2022/01/21 05:32:08;;;;;;;7.40;3.77;;;;;;;-2.33;72.22;98088.84;1706311;83;21020;-42
2022/01/21 05:34:42;;;;;;;10.32;3.52;;;;;;;-2.33;72.00;98073.70;1695932;83;21037;-42
2022/01/21 05:37:20;;;;;;;6.30;3.35;;;;;;;-2.33;71.67;98076.36;1739802;81;22349;-42
2022/01/21 05:40:03;;;;;;;9.63;3.80;;;;;;;-2.30;71.73;98072.30;1716935;81;21069;-42
2022/01/21 05:42:46;;;;;;;10.23;3.58;;;;;;;-2.28;71.68;98065.61;1736594;82;20933;-42
2022/01/21 05:48:11;;;;;;;7.42;3.00;;;;;;;-2.27;71.75;98075.66;1731133;81;21002;-42
2022/01/21 05:50:48;;;;;;;7.33;3.30;;;;;;;-2.27;71.87;98088.38;1662275;85;21132;-42
2022/01/21 05:53:26;;;;;;;8.30;3.60;;;;;;;-2.26;71.93;98081.20;1659765;84;21891;-42
2022/01/21 05:56:01;;;;;;;8.45;3.80;;;;;;;-2.32;71.97;98087.19;1739500;81;20934;-42
2022/01/21 05:58:37;;;;;;;8.83;3.40;;;;;;;-2.34;72.02;98089.38;1706326;84;20969;-42
2022/01/21 06:01:04;;;;;;;5.72;3.33;;;;;;;-2.36;72.08;98090.77;1706419;83;20989;-42
2022/01/21 06:03:32;;;;;;;9.75;3.40;;;;;;;-2.39;72.12;98096.16;1690691;84;21150;-42
2022/01/21 06:05:58;;;;;;;8.83;3.10;;;;;;;-2.40;72.11;98087.95;1732335;82;21081;-42
2022/01/21 06:08:25;;;;;;;7.78;3.00;;;;;;;-2.88;72.04;98021.55;1741415;82;21006;-42
2022/01/21 06:10:52;;;;;;;8.05;3.15;;;;;;;-2.40;71.88;98083.97;1743405;82;20961;-42
2022/01/21 06:13:19;;;;;;;4.92;2.92;;;;;;;-2.41;71.57;98098.31;1742964;82;21097;-42
2022/01/21 06:15:46;;;;;;;6.62;3.27;;;;;;;-2.41;71.39;98089.03;1737280;81;21247;-42
2022/01/21 06:18:13;;;;;;;10.72;3.50;;;;;;;-2.41;71.41;98094.34;1743218;82;20951;-42
2022/01/21 06:20:40;;;;;;;7.60;3.35;;;;;;;-2.44;71.62;98096.28;1737088;82;21320;-42
2022/01/21 06:23:06;;;;;;;8.93;3.50;;;;;;;-2.45;71.82;98101.89;1668649;84;21005;-42
2022/01/21 06:25:33;;;;;;;8.60;3.45;;;;;;;-2.46;72.14;98096.33;1712906;82;21027;-42
2022/01/21 06:28:00;;;;;;;7.10;3.60;;;;;;;-2.48;72.51;98105.16;1732426;81;21115;-42
2022/01/21 06:30:26;;;;;;;7.37;3.62;;;;;;;-2.48;72.79;98100.64;1714668;82;21112;-42
2022/01/21 06:32:53;;;;;;;7.12;3.58;;;;;;;-2.48;72.91;98107.81;1704826;83;21086;-42
2022/01/21 06:35:20;;;;;;;6.05;3.10;;;;;;;-2.48;73.03;98101.97;1698858;84;20999;-42
2022/01/21 06:37:46;;;;;;;8.10;3.60;;;;;;;-2.50;73.18;98098.82;1705835;83;21084;-42
2022/01/21 06:40:15;;;;;;;6.37;3.37;;;;;;;-2.51;73.27;98098.58;1698185;84;21128;-42
2022/01/21 06:42:41;;;;;;;6.75;3.60;;;;;;;-2.52;73.28;98101.02;1700967;84;20990;-42
2022/01/21 06:45:10;;;;;;;5.78;3.45;;;;;;;-2.50;73.35;98101.47;1712818;83;21116;-42
2022/01/21 06:47:37;;;;;;;7.50;3.75;;;;;;;-2.49;73.40;98103.05;1707550;83;21539;-42
2022/01/21 06:50:05;;;;;;;9.18;3.52;;;;;;;-2.45;73.47;98113.83;1720567;83;21008;-42
2022/01/21 06:52:32;;;;;;;9.90;4.00;;;;;;;-2.42;73.40;98107.36;1709071;82;21617;-42
2022/01/21 06:54:59;;;;;;;7.00;3.92;;;;;;;-2.41;73.41;98105.48;1691401;83;21053;-42
2022/01/21 06:57:27;;;;;;;10.28;3.90;;;;;;;-2.39;73.54;98112.08;1715169;83;21500;-42
2022/01/21 06:59:53;;;;;;;6.53;3.58;;;;;;;-2.36;73.60;98114.11;1700296;83;21025;-42
2022/01/21 07:02:20;;;;;;;10.68;4.00;;;;;;;-2.30;73.68;98111.56;1701815;83;21022;-42
2022/01/21 07:04:47;;;;;;;12.10;3.80;;;;;;;-2.24;73.55;98108.23;1721104;83;21147;-42
2022/01/21 07:07:13;;;;;;;7.00;3.70;;;;;;;-2.21;73.46;98114.25;1721244;83;20941;-42
2022/01/21 07:09:41;;;;;;;9.28;4.20;;;;;;;-2.22;73.20;98106.83;1721123;83;21717;-42
2022/01/21 07:12:10;;;;;;;11.10;4.87;;;;;;;-2.21;73.21;98105.75;1719955;83;21085;-42
2022/01/21 07:14:37;;;;;;;8.35;4.33;;;;;;;-2.17;73.30;98106.45;1717712;83;21054;-42
2022/01/21 07:17:04;;;;;;;8.03;4.42;;;;;;;-2.17;73.25;98105.13;1717548;83;21150;-42
2022/01/21 07:19:30;;;;;;;8.65;4.35;;;;;;;-2.15;73.18;98110.92;1692873;83;21567;-42
2022/01/21 07:21:57;;;;;;;7.37;3.70;;;;;;;-2.12;73.33;98123.03;1686236;85;21076;-42
2022/01/21 07:24:23;;;;;;;8.40;3.60;;;;;;;-2.11;73.06;98110.00;1687244;85;21072;-42
2022/01/21 07:26:50;;;;;;;13.50;4.22;;;;;;;-2.10;73.12;98118.75;1687169;85;21049;-42
2022/01/21 07:29:17;;;;;;;7.83;3.37;;;;;;;-2.11;72.84;98121.16;1666827;84;21106;-42
2022/01/21 07:31:44;;;;;;;11.45;3.55;;;;;;;-2.11;72.61;98121.16;1751371;80;20909;-42
2022/01/21 07:34:11;;;;;;;7.55;3.62;;;;;;;-2.10;72.68;98113.44;1721342;82;21042;-42
2022/01/21 07:36:38;;;;;;;10.55;3.85;;;;;;;-2.08;72.43;98124.55;1722245;82;21034;-42
2022/01/21 07:39:05;;;;;;;6.53;3.65;;;;;;;-2.06;72.20;98121.81;1740216;82;21076;-41
2022/01/21 07:41:32;;;;;;;7.60;3.42;;;;;;;-2.02;71.51;98114.80;1744700;82;21105;-42
2022/01/21 07:43:58;;;;;;;9.75;4.03;;;;;;;-1.94;71.34;98117.26;1743709;82;20984;-42
2022/01/21 07:46:26;;;;;;;6.45;3.70;;;;;;;-1.84;70.79;98128.94;1755901;80;21042;-42
2022/01/21 07:48:52;;;;;;;11.78;4.00;;;;;;;-1.76;70.46;98106.37;1749547;82;21013;-42
2022/01/21 07:51:19;;;;;;;8.48;3.70;;;;;;;-1.65;69.56;98113.51;1752069;80;21045;-42
2022/01/21 07:53:46;;;;;;;12.53;4.37;;;;;;;-1.60;68.20;98093.98;1750898;82;21143;-42
2022/01/21 07:56:12;;;;;;;8.45;3.47;;;;;;;-1.55;67.71;98099.90;1715073;83;20913;-42
2022/01/21 07:58:39;;;;;;;7.58;3.65;;;;;;;-1.53;67.27;98096.40;1743264;80;21230;-42
2022/01/21 08:01:06;;;;;;;7.60;3.37;;;;;;;-1.49;67.05;98114.61;1749249;80;21011;-42
2022/01/21 08:03:33;;;;;;;9.25;3.55;;;;;;;-1.50;66.67;98110.95;1751299;82;21037;-42
2022/01/21 08:06:00;;;;;;;11.35;4.40;;;;;;;-1.53;66.87;98105.70;1703841;83;21153;-42
2022/01/21 08:08:26;;;;;;;9.28;3.80;;;;;;;-1.58;67.38;98107.17;1679168;85;20980;-42
2022/01/21 08:10:54;;;;;;;9.73;3.95;;;;;;;-1.60;68.10;98111.25;1706454;83;21489;-42
2022/01/21 08:13:21;;;;;;;11.12;3.67;;;;;;;-1.97;68.05;98055.45;1689450;84;21034;-42
2022/01/21 08:15:48;;;;;;;10.88;3.90;;;;;;;-1.62;67.68;98102.25;1706334;84;21066;-42
2022/01/21 08:18:15;;;;;;;7.33;3.95;;;;;;;-1.60;68.11;98106.72;1700232;84;21159;-42
2022/01/21 08:20:43;;;;;;;9.50;3.58;;;;;;;-1.59;68.15;98083.02;1707261;84;20970;-42
2022/01/21 08:23:11;;;;;;;11.78;4.03;;;;;;;-1.59;67.93;98110.92;1720190;82;21059;-42
2022/01/21 08:25:39;;;;;;;9.35;3.80;;;;;;;-1.59;67.88;98094.19;1751571;82;21029;-42
2022/01/21 08:28:06;;;;;;;14.47;3.92;;;;;;;-1.57;67.83;98102.64;1752265;81;21080;-42
2022/01/21 08:30:33;;;;;;;7.28;3.67;;;;;;;-1.57;67.48;98111.95;1756555;81;21083;-42
2022/01/21 08:33:00;;;;;;;6.10;3.40;;;;;;;-1.57;67.30;98099.45;1756482;81;20930;-42
2022/01/21 08:35:27;;;;;;;9.55;4.10;;;;;;;-1.55;67.50;98099.90;1720469;83;21511;-42
2022/01/21 08:37:54;;;;;;;13.60;3.75;;;;;;;-1.54;66.94;98091.38;1717277;83;21094;-42
2022/01/21 08:40:22;;;;;;;7.58;3.45;;;;;;;-1.52;67.29;98097.97;1695244;83;21109;-42
2022/01/21 08:42:48;;;;;;;10.82;3.80;;;;;;;-1.51;66.76;98106.73;1714537;83;21792;-42
2022/01/21 08:45:16;;;;;;;8.03;3.75;;;;;;;-1.53;66.59;98095.06;1700983;83;20940;-42
2022/01/21 08:47:43;;;;;;;10.90;3.67;;;;;;;-1.52;66.68;98094.52;1702349;84;21524;-42
2022/01/21 08:50:12;;;;;;;10.72;3.75;;;;;;;-1.48;66.59;98100.23;1702356;84;21042;-42
2022/01/21 08:52:40;;;;;;;7.10;3.33;;;;;;;-1.42;65.97;98099.00;1702203;84;21078;-42
2022/01/21 08:55:13;;;;;;;10.55;3.42;;;;;;;-1.41;65.30;98093.14;1702269;84;21151;-42
2022/01/21 08:57:41;;;;;;;15.90;3.58;;;;;;;-1.40;64.59;98073.41;1702272;84;21057;-42
2022/01/21 09:00:18;;;;;;;11.90;3.55;;;;;;;-1.31;63.91;98087.52;1702366;84;20950;-42
2022/01/21 09:02:45;;;;;;;9.88;3.42;;;;;;;-1.26;63.50;98074.61;1697842;84;21053;-42
2022/01/21 09:05:12;;;;;;;9.20;3.40;;;;;;;-1.23;62.82;98101.89;1720299;83;21111;-42
2022/01/21 09:07:39;;;;;;;14.98;3.27;;;;;;;-1.21;62.83;98075.21;1720589;83;21753;-42
2022/01/21 09:10:07;;;;;;;10.20;4.10;;;;;;;-1.14;62.57;98080.07;1720962;82;21048;-42
2022/01/21 09:12:34;;;;;;;11.53;3.47;;;;;;;-1.12;62.17;98089.86;1697295;84;21006;-42
2022/01/21 09:15:01;;;;;;;14.68;3.55;;;;;;;-1.05;62.94;98091.48;1708610;83;21722;-42
2022/01/21 09:17:28;;;;;;;10.70;3.55;;;;;;;-1.03;62.81;98085.31;1714628;83;21879;-42
2022/01/21 09:19:54;;;;;;;10.45;3.77;;;;;;;-1.02;62.30;98078.91;1712967;82;21793;-42
2022/01/21 09:22:21;;;;;;;10.38;3.62;;;;;;;-1.00;61.97;98070.05;1730352;82;21529;-42
2022/01/21 09:24:47;;;;;;;7.05;2.85;;;;;;;-0.96;62.04;98082.40;1701190;82;21905;-42
2022/01/21 09:27:14;;;;;;;12.63;3.12;;;;;;;-0.90;62.24;98068.39;1700838;83;21046;-42
2022/01/21 09:29:41;;;;;;;12.75;3.58;;;;;;;-0.82;62.64;98075.56;1696246;83;21078;-42
2022/01/21 09:32:08;;;;;;;10.80;3.00;;;;;;;-0.82;62.75;98066.25;1738238;82;21075;-42
2022/01/21 09:34:35;;;;;;;8.50;3.35;;;;;;;-0.77;63.07;98068.75;1740448;82;20973;-42
2022/01/21 09:37:03;;;;;;;7.70;3.22;;;;;;;-0.78;63.69;98075.19;1729643;82;20985;-42
2022/01/21 09:39:30;;;;;;;8.38;3.47;;;;;;;-0.75;63.71;98059.91;1726678;81;21481;-42
2022/01/21 09:41:59;;;;;;;11.85;3.52;;;;;;;-0.74;63.64;98072.13;1743153;82;21511;-42
2022/01/21 09:44:27;;;;;;;10.25;3.20;;;;;;;-0.81;63.06;98070.48;1743108;81;21163;-42
2022/01/21 09:46:56;;;;;;;8.90;3.42;;;;;;;-0.83;63.18;98071.36;1742876;82;20989;-42
2022/01/21 09:51:51;;;;;;;11.10;3.40;;;;;;;-0.89;64.04;98073.95;1742915;81;21072;-42
2022/01/21 09:54:18;;;;;;;14.70;3.27;;;;;;;-0.96;64.22;98065.66;1689673;83;21055;-42
2022/01/21 09:56:46;;;;;;;18.75;3.42;;;;;;;-1.04;64.19;98062.47;1681438;84;21157;-42
2022/01/21 09:59:17;;;;;;;8.88;3.60;;;;;;;-1.05;64.17;98051.59;1743178;82;21512;-42
2022/01/21 10:01:48;;;;;;;16.50;3.60;;;;;;;-1.09;64.35;98060.75;1708423;82;20981;-42
2022/01/21 10:04:15;;;;;;;14.03;3.70;;;;;;;-1.11;64.87;98070.13;1748636;80;21449;-42
2022/01/21 10:06:46;;;;;;;15.90;3.42;;;;;;;-1.08;65.06;98064.98;1748769;80;21038;-42
2022/01/21 10:09:16;;;;;;;19.50;4.90;;;;;;;-1.08;64.56;98053.56;1758481;80;21959;-42
2022/01/21 10:11:48;;;;;;;18.32;3.80;;;;;;;-1.07;64.75;98060.45;1765063;80;21041;-42
2022/01/21 10:14:11;;;;;;;13.10;4.62;;;;;;;-1.06;64.33;98059.33;1708830;82;21456;-42
2022/01/21 10:16:42;;;;;;;8.60;3.08;;;;;;;-1.05;64.01;98065.67;1707302;82;21519;-42
2022/01/21 10:19:10;;;;;;;13.35;3.50;;;;;;;-1.06;64.60;98053.46;1750249;80;21047;-42
2022/01/21 10:21:39;;;;;;;16.60;3.27;;;;;;;-1.06;64.63;98061.98;1762440;80;21150;-42
2022/01/21 10:24:11;;;;;;;;;;;;;;;-1.06;65.26;98059.33;1750613;80;20981;-43
2022/01/21 10:26:52;;;;;;;12.82;3.42;;;;;;;-1.10;65.24;98061.84;1739066;82;20145;-42
2022/01/21 10:29:20;;;;;;;12.25;3.10;;;;;;;-1.13;65.26;98059.04;1752682;81;21551;-42
2022/01/21 10:31:59;;;;;;;9.70;2.80;;;;;;;-1.06;64.34;98057.45;1757479;81;21477;-42
2022/01/21 10:34:40;;;;;;;12.53;3.17;;;;;;;-0.99;63.82;98063.09;1724345;82;21153;-42
2022/01/21 10:37:26;;;;;;;14.75;3.40;;;;;;;-0.94;63.25;98048.84;1737440;82;21010;-42
2022/01/21 10:40:08;;;;;;;26.70;3.85;;;;;;;-0.91;63.13;98061.50;1708680;83;21022;-43
2022/01/21 10:44:10;;;;;;;12.73;2.77;;;;;;;-0.77;62.68;98051.45;1828177;77;22931;-41
2022/01/21 10:46:39;;;;;;;12.33;2.65;;;;;;;-0.85;62.86;98041.63;1785713;79;21542;-41
2022/01/21 10:49:12;;;;;;;9.88;2.58;;;;;;;-0.82;62.09;98037.56;1755198;81;21082;-41
2022/01/21 10:51:40;;;;;;;10.48;2.95;;;;;;;-0.84;61.98;98044.52;1773334;78;21021;-41
2022/01/21 10:54:20;;;;;;;10.03;3.10;;;;;;;-0.83;61.60;98055.41;1787781;79;21535;-41
2022/01/21 10:57:16;;;;;;;12.98;3.40;;;;;;;-0.81;61.89;98046.53;1776867;79;20969;-41
2022/01/21 11:00:09;;;;;;;11.10;2.67;;;;;;;-0.76;62.21;98033.06;1723016;81;21582;-41
2022/01/21 11:02:53;;;;;;;16.37;2.83;;;;;;;-0.77;62.88;98032.83;1789653;79;21900;-41
2022/01/21 11:05:36;;;;;;;9.45;2.58;;;;;;;-0.86;63.01;98046.70;1800917;79;20968;-41
2022/01/21 11:08:06;;;;;;;13.25;3.00;;;;;;;-0.96;63.77;98043.04;1801809;79;20931;-41
2022/01/21 11:10:38;;;;;;;14.18;2.42;;;;;;;-0.96;64.50;98028.41;1790748;78;20936;-41
2022/01/21 11:13:19;;;;;;;10.60;2.52;;;;;;;-0.99;64.37;98042.36;1791016;79;21029;-41
2022/01/21 11:15:57;;;;;;;12.07;2.87;;;;;;;-0.98;63.95;98037.27;1783158;79;21132;-41
2022/01/21 11:18:26;;;;;;;9.08;2.80;;;;;;;-0.99;63.85;98039.70;1784997;79;20996;-41
2022/01/21 11:21:04;;;;;;;20.43;3.37;;;;;;;-0.94;63.98;98032.88;1796126;79;21543;-41
2022/01/21 11:23:28;;;;;;;11.68;3.55;;;;;;;-0.89;63.42;98030.84;1794192;79;21050;-41
2022/01/21 11:25:58;;;;;;;16.87;2.65;;;;;;;-0.83;62.91;98046.09;1788576;79;21017;-41
2022/01/21 11:28:27;;;;;;;16.17;3.40;;;;;;;-0.81;63.12;98044.42;1803061;79;21116;-41
2022/01/21 11:30:54;;;;;;;9.77;3.67;;;;;;;-0.77;61.86;98034.70;1776506;79;20949;-42
2022/01/21 11:33:22;;;;;;;12.03;2.87;;;;;;;-0.77;61.86;98034.70;1778291;80;21432;-41
2022/01/21 11:35:50;;;;;;;11.15;3.50;;;;;;;-0.76;62.25;98045.04;1801199;79;21020;-41
2022/01/21 11:38:18;;;;;;;16.62;3.37;;;;;;;-0.79;62.66;98049.67;1782979;79;21087;-41
2022/01/21 11:40:45;;;;;;;16.45;2.85;;;;;;;-0.78;62.72;98036.61;1784144;78;21322;-41
2022/01/21 11:43:12;;;;;;;13.40;3.22;;;;;;;-0.82;62.62;98046.30;1756164;80;21007;-41
2022/01/21 11:50:45;;;;;;;11.15;3.02;;;;;;;-0.78;62.15;98052.58;1793330;79;21510;-41
2022/01/21 11:53:12;;;;;;;9.15;2.42;;;;;;;-0.75;62.21;98054.59;1789396;79;21259;-41
2022/01/21 11:55:46;;;;;;;10.93;2.87;;;;;;;-0.76;62.57;98047.70;1787550;78;20993;-41
2022/01/21 11:58:22;;;;;;;12.47;2.87;;;;;;;-0.84;63.47;98053.05;1792112;78;20962;-41
2022/01/21 12:00:51;;;;;;;9.98;2.83;;;;;;;-0.92;63.73;98051.98;1794629;79;20926;-41
2022/01/21 12:03:21;;;;;;;11.05;3.08;;;;;;;-0.96;64.81;98045.70;1792767;78;21092;-41
2022/01/21 12:05:47;;;;;;;;;;;;;;;-1.00;65.37;98054.08;1793905;78;21510;-41
2022/01/21 12:08:14;;;;;;;7.65;2.72;;;;;;;-1.04;65.35;98041.19;1788799;79;20598;-41
2022/01/21 12:10:43;;;;;;;9.75;2.90;;;;;;;-1.12;65.60;98043.32;1791275;79;21016;-41
2022/01/21 12:13:21;;;;;;;9.48;2.80;;;;;;;-1.08;65.78;98050.35;1790896;79;21037;-41
2022/01/21 12:19:06;;;;;;;10.32;2.30;;;;;;;-1.13;66.21;98058.48;1801299;79;21872;-41
2022/01/21 12:21:33;;;;;;;10.38;3.12;;;;;;;-1.07;66.04;98052.47;1807995;79;21425;-41
2022/01/21 12:24:00;;;;;;;10.80;2.10;;;;;;;-1.08;65.24;98045.58;1808669;79;21543;-41
2022/01/21 12:26:30;;;;;;;6.95;2.83;;;;;;;-1.04;65.10;98050.50;1794164;78;21191;-41
2022/01/21 12:29:02;;;;;;;8.28;2.90;;;;;;;-1.06;64.84;98037.50;1788188;79;21017;-42
2022/01/21 12:31:51;;;;;;;7.37;2.70;;;;;;;-1.04;64.67;98046.51;1787854;80;21139;-42
2022/01/21 12:34:26;;;;;;;8.75;2.40;;;;;;;-1.03;64.84;98065.36;1787814;79;21519;-41
2022/01/21 12:36:58;;;;;;;7.12;2.70;;;;;;;-1.04;65.12;98054.48;1790041;79;20993;-41
2022/01/21 12:39:46;;;;;;;5.78;2.50;;;;;;;-1.02;65.06;98065.61;1797385;79;21504;-42
2022/01/21 12:42:35;;;;;;;6.42;2.67;;;;;;;-1.02;64.97;98056.30;1797278;79;21069;-41